^^
Grace C. Lehan Memorial Weather Station Historical Data
Daily Summary for June 12, 2021 Units:  Both    English   Metric
Daily Weekly Monthly Yearly
  High: Low: Average:
Temperature: 84.3 °F /  29.1 °C 60.5 °F /  15.8 °C 72.9 °F /  22.7 °C
Dew Point: 70.4 °F /  21.3 °C 58 °F /  14.4 °C 65.1 °F /  18.4 °C
Humidity: 92% 62% 78%
Wind Speed: 2.8mph /  4.5km/h - 0.6mph /  1km/h
Wind Gust: 14mph /  22.5km/h - -
Wind- - WSW
Pressure: 30.08 in /  1018.5 hPa 29.92 in /  1013.1 hPa -
Precipitation: 0.00 in /  0 mm    
 
 
Tabular Data for June 12, 2021
Time Temperature Dew Point Pressure Wind Wind Speed Wind Gust Humidity Rainfall Rate (Hourly) solar
00:09 63.6 °F /  17.6 °C 60.6 °F /  15.9 °C 30.08in /  1018.5hPa Calm     90% 0.00in /  0mm 0 W/m2
00:14 63.5 °F /  17.5 °C 60.5 °F /  15.8 °C 30.08in /  1018.5hPa Calm     90% 0.00in /  0mm 0 W/m2
00:19 63.4 °F /  17.4 °C 60.6 °F /  15.9 °C 30.08in /  1018.5hPa Calm     90.3% 0.00in /  0mm 0 W/m2
00:24 63.4 °F /  17.4 °C 60.7 °F /  15.9 °C 30.08in /  1018.5hPa Calm     91% 0.00in /  0mm 0 W/m2
00:29 63.3 °F /  17.4 °C 60.6 °F /  15.9 °C 30.08in /  1018.5hPa Calm     91% 0.00in /  0mm 0 W/m2
00:34 63.1 °F /  17.3 °C 60.5 °F /  15.8 °C 30.08in /  1018.5hPa Calm     91% 0.00in /  0mm 0 W/m2
00:39 63 °F /  17.2 °C 60.4 °F /  15.8 °C 30.08in /  1018.5hPa Calm     91% 0.00in /  0mm 0 W/m2
00:44 62.9 °F /  17.2 °C 60.2 °F /  15.7 °C 30.08in /  1018.5hPa Calm     91% 0.00in /  0mm 0 W/m2
00:49 62.8 °F /  17.1 °C 60.1 °F /  15.6 °C 30.08in /  1018.5hPa Calm     91% 0.00in /  0mm 0 W/m2
00:53 62.6 °F /  17 °C 60 °F /  15.6 °C 30.08in /  1018.5hPa Calm     91% 0.00in /  0mm 0 W/m2
00:59 62.5 °F /  16.9 °C 59.8 °F /  15.4 °C 30.08in /  1018.5hPa Calm     91% 0.00in /  0mm 0 W/m2
01:04 62.3 °F /  16.8 °C 59.7 °F /  15.4 °C 30.08in /  1018.5hPa Calm     91% 0.00in /  0mm 0 W/m2
01:09 62.2 °F /  16.8 °C 59.6 °F /  15.3 °C 30.08in /  1018.5hPa Calm     91% 0.00in /  0mm 0 W/m2
01:14 62.1 °F /  16.7 °C 59.4 °F /  15.2 °C 30.08in /  1018.5hPa Calm     91% 0.00in /  0mm 0 W/m2
01:19 62 °F /  16.7 °C 59.3 °F /  15.2 °C 30.08in /  1018.5hPa Calm     91% 0.00in /  0mm 0 W/m2
01:24 61.8 °F /  16.6 °C 59.2 °F /  15.1 °C 30.08in /  1018.5hPa Calm     91% 0.00in /  0mm 0 W/m2
01:29 61.7 °F /  16.5 °C 59 °F /  15 °C 30.08in /  1018.5hPa Calm     91% 0.00in /  0mm 0 W/m2
01:34 61.6 °F /  16.4 °C 58.9 °F /  14.9 °C 30.08in /  1018.5hPa Calm     91% 0.00in /  0mm 0 W/m2
01:39 61.4 °F /  16.3 °C 58.8 °F /  14.9 °C 30.08in /  1018.5hPa Calm     91% 0.00in /  0mm 0 W/m2
01:44 61.3 °F /  16.3 °C 58.7 °F /  14.8 °C 30.08in /  1018.5hPa Calm     91% 0.00in /  0mm 0 W/m2
01:49 61.2 °F /  16.2 °C 58.5 °F /  14.7 °C 30.08in /  1018.5hPa Calm     91% 0.00in /  0mm 0 W/m2
01:54 61 °F /  16.1 °C 58.4 °F /  14.7 °C 30.08in /  1018.5hPa Calm     91% 0.00in /  0mm 0 W/m2
01:59 60.9 °F /  16.1 °C 58.3 °F /  14.6 °C 30.08in /  1018.5hPa Calm     91% 0.00in /  0mm 0 W/m2
02:04 60.8 °F /  16 °C 58.2 °F /  14.6 °C 30.08in /  1018.5hPa Calm     91.2% 0.00in /  0mm 0 W/m2
02:09 60.7 °F /  15.9 °C 58.1 °F /  14.5 °C 30.08in /  1018.5hPa Calm     91.3% 0.00in /  0mm 0 W/m2
02:14 60.6 °F /  15.9 °C 58.3 °F /  14.6 °C 30.08in /  1018.5hPa Calm     92% 0.00in /  0mm 0 W/m2
02:19 60.5 °F /  15.8 °C 58.2 °F /  14.6 °C 30.08in /  1018.5hPa Calm     92% 0.00in /  0mm 0 W/m2
02:23 60.5 °F /  15.8 °C 58.2 °F /  14.6 °C 30.08in /  1018.5hPa Calm     92% 0.00in /  0mm 0 W/m2
02:29 60.5 °F /  15.8 °C 58.2 °F /  14.6 °C 30.08in /  1018.5hPa Calm     92% 0.00in /  0mm 0 W/m2
02:34 60.5 °F /  15.8 °C 58.2 °F /  14.6 °C 30.08in /  1018.5hPa Calm     92% 0.00in /  0mm 0 W/m2
02:39 60.5 °F /  15.8 °C 58.2 °F /  14.6 °C 30.08in /  1018.5hPa Calm     92% 0.00in /  0mm 0 W/m2
02:44 60.6 °F /  15.9 °C 58.3 °F /  14.6 °C 30.08in /  1018.5hPa Calm     92% 0.00in /  0mm 0 W/m2
02:49 60.7 °F /  15.9 °C 58.1 °F /  14.5 °C 30.08in /  1018.5hPa Calm     91.2% 0.00in /  0mm 0 W/m2
02:54 60.7 °F /  15.9 °C 58.1 °F /  14.5 °C 30.08in /  1018.5hPa Calm     91% 0.00in /  0mm 0 W/m2
02:59 60.8 °F /  16 °C 58.2 °F /  14.6 °C 30.08in /  1018.5hPa Calm     91% 0.00in /  0mm 0 W/m2
03:04 60.9 °F /  16.1 °C 58.2 °F /  14.6 °C 30.08in /  1018.5hPa Calm     90.8% 0.00in /  0mm 0 W/m2
03:09 60.9 °F /  16.1 °C 58 °F /  14.4 °C 30.08in /  1018.5hPa Calm     90% 0.00in /  0mm 0 W/m2
03:14 61 °F /  16.1 °C 58 °F /  14.4 °C 30.08in /  1018.5hPa Calm     90% 0.00in /  0mm 0 W/m2
03:19 61 °F /  16.1 °C 58.1 °F /  14.5 °C 30.07in /  1018.2hPa Calm     90% 0.00in /  0mm 0 W/m2
03:24 61 °F /  16.1 °C 58.1 °F /  14.5 °C 30.07in /  1018.2hPa Calm     90% 0.00in /  0mm 0 W/m2
03:29 61 °F /  16.1 °C 58.1 °F /  14.5 °C 30.07in /  1018.2hPa Calm     90% 0.00in /  0mm 0 W/m2
03:34 61.1 °F /  16.2 °C 58.3 °F /  14.6 °C 30.07in /  1018.2hPa Calm     90.4% 0.00in /  0mm 0 W/m2
03:39 61.3 °F /  16.3 °C 58.4 °F /  14.7 °C 30.07in /  1018.2hPa Calm     90% 0.00in /  0mm 0 W/m2
03:44 61.6 °F /  16.4 °C 58.6 °F /  14.8 °C 30.07in /  1018.2hPa SSW 0.2mph /  0.3km/h 2mph /  3.2km/h 90% 0.00in /  0mm 0 W/m2
03:49 61.9 °F /  16.6 °C 58.9 °F /  14.9 °C 30.07in /  1018.2hPa Calm   2mph /  3.2km/h 90% 0.00in /  0mm 0 W/m2
03:54 62.2 °F /  16.8 °C 59 °F /  15 °C 30.06in /  1017.8hPa SW 0.3mph /  0.5km/h 5mph /  8km/h 89.5% 0.00in /  0mm 0 W/m2
03:59 62.4 °F /  16.9 °C 59.1 °F /  15.1 °C 30.06in /  1017.8hPa WSW 0.1mph /  0.2km/h 5mph /  8km/h 89% 0.00in /  0mm 0 W/m2
04:00 62.5 °F /  16.9 °C 59.2 °F /  15.1 °C 30.06in /  1017.8hPa WSW 1mph /  1.6km/h 5mph /  8km/h 89% 0.00in /  0mm 0 W/m2
04:09 63.1 °F /  17.3 °C 59.8 °F /  15.4 °C 30.06in /  1017.8hPa WSW 1.8mph /  2.9km/h 4mph /  6.4km/h 88.9% 0.00in /  0mm 0 W/m2
04:14 63.3 °F /  17.4 °C 59.7 °F /  15.4 °C 30.06in /  1017.8hPa WSW 0.2mph /  0.3km/h 4mph /  6.4km/h 88% 0.00in /  0mm 0 W/m2
04:19 63.6 °F /  17.6 °C 59.9 °F /  15.5 °C 30.06in /  1017.8hPa WSW 0.2mph /  0.3km/h 4mph /  6.4km/h 87.7% 0.00in /  0mm 0 W/m2
04:24 63.9 °F /  17.7 °C 59.8 °F /  15.4 °C 30.06in /  1017.8hPa WSW 0.1mph /  0.2km/h 4mph /  6.4km/h 86.7% 0.00in /  0mm 0 W/m2
04:29 64.1 °F /  17.8 °C 59.8 °F /  15.4 °C 30.06in /  1017.8hPa WSW 0.1mph /  0.2km/h 4mph /  6.4km/h 86% 0.00in /  0mm 0 W/m2
04:34 64.3 °F /  17.9 °C 60 °F /  15.6 °C 30.06in /  1017.8hPa Calm   4mph /  6.4km/h 86% 0.00in /  0mm 0 W/m2
04:39 64.4 °F /  18 °C 59.8 °F /  15.4 °C 30.06in /  1017.8hPa Calm   2mph /  3.2km/h 85.1% 0.00in /  0mm 0 W/m2
04:44 64.4 °F /  18 °C 59.8 °F /  15.4 °C 30.05in /  1017.5hPa South 0.1mph /  0.2km/h 2mph /  3.2km/h 85% 0.00in /  0mm 0 W/m2
04:49 64.5 °F /  18.1 °C 59.9 °F /  15.5 °C 30.05in /  1017.5hPa Calm   2mph /  3.2km/h 85% 0.00in /  0mm 0 W/m2
04:54 64.5 °F /  18.1 °C 59.9 °F /  15.5 °C 30.05in /  1017.5hPa Calm   2mph /  3.2km/h 85% 0.00in /  0mm 0 W/m2
04:59 64.4 °F /  18 °C 59.8 °F /  15.4 °C 30.05in /  1017.5hPa Calm   2mph /  3.2km/h 85% 0.00in /  0mm 0 W/m2
05:03 64.4 °F /  18 °C 59.8 °F /  15.4 °C 30.05in /  1017.5hPa Calm   2mph /  3.2km/h 85% 0.00in /  0mm 0 W/m2
05:09 64.4 °F /  18 °C 59.8 °F /  15.4 °C 30.05in /  1017.5hPa Calm   1mph /  1.6km/h 85% 0.00in /  0mm 0 W/m2
05:14 64.4 °F /  18 °C 59.8 °F /  15.4 °C 30.05in /  1017.5hPa Calm   1mph /  1.6km/h 85% 0.00in /  0mm 0 W/m2
05:19 64.4 °F /  18 °C 59.9 °F /  15.5 °C 30.05in /  1017.5hPa Calm   1mph /  1.6km/h 85.4% 0.00in /  0mm 0 W/m2
05:24 64.4 °F /  18 °C 60.1 °F /  15.6 °C 30.05in /  1017.5hPa Calm   1mph /  1.6km/h 86% 0.00in /  0mm 0 W/m2
05:29 64.3 °F /  17.9 °C 60 °F /  15.6 °C 30.05in /  1017.5hPa Calm   1mph /  1.6km/h 86% 0.00in /  0mm 0 W/m2
05:34 64.3 °F /  17.9 °C 60 °F /  15.6 °C 30.05in /  1017.5hPa Calm   1mph /  1.6km/h 86% 0.00in /  0mm 0 W/m2
05:39 64.3 °F /  17.9 °C 60 °F /  15.6 °C 30.05in /  1017.5hPa SSW 0.1mph /  0.2km/h 3mph /  4.8km/h 86% 0.00in /  0mm 0 W/m2
05:44 64.3 °F /  17.9 °C 60 °F /  15.6 °C 30.05in /  1017.5hPa Calm   3mph /  4.8km/h 86% 0.00in /  0mm 0 W/m2
05:49 64.2 °F /  17.9 °C 59.9 °F /  15.5 °C 30.05in /  1017.5hPa Calm   3mph /  4.8km/h 86% 0.00in /  0mm 0 W/m2
05:54 64.2 °F /  17.9 °C 60 °F /  15.6 °C 30.05in /  1017.5hPa Calm   3mph /  4.8km/h 86.2% 0.00in /  0mm 0 W/m2
05:59 64.3 °F /  17.9 °C 60.3 °F /  15.7 °C 30.04in /  1017.2hPa Calm   3mph /  4.8km/h 87% 0.00in /  0mm 0 W/m2
06:04 64.3 °F /  17.9 °C 60.3 °F /  15.7 °C 30.04in /  1017.2hPa Calm   3mph /  4.8km/h 86.8% 0.00in /  0mm 0 W/m2
06:09 64.4 °F /  18 °C 60.1 °F /  15.6 °C 30.04in /  1017.2hPa Calm     86% 0.00in /  0mm 0 W/m2
06:14 64.4 °F /  18 °C 60.1 °F /  15.6 °C 30.04in /  1017.2hPa SW 0.1mph /  0.2km/h 2mph /  3.2km/h 86% 0.00in /  0mm 0 W/m2
06:19 64.5 °F /  18.1 °C 60.2 °F /  15.7 °C 30.04in /  1017.2hPa SW 0.1mph /  0.2km/h 3mph /  4.8km/h 86% 0.00in /  0mm 0 W/m2
06:24 64.6 °F /  18.1 °C 60.3 °F /  15.7 °C 30.04in /  1017.2hPa WSW 0.5mph /  0.8km/h 4mph /  6.4km/h 86% 0.00in /  0mm 0 W/m2
06:29 64.6 °F /  18.1 °C 60.4 °F /  15.8 °C 30.04in /  1017.2hPa SSW 0.3mph /  0.5km/h 4mph /  6.4km/h 86% 0.00in /  0mm 0 W/m2
06:34 64.8 °F /  18.2 °C 60.5 °F /  15.8 °C 30.04in /  1017.2hPa SSW 0.3mph /  0.5km/h 4mph /  6.4km/h 86% 0.00in /  0mm 0 W/m2
06:39 64.8 °F /  18.2 °C 60.6 °F /  15.9 °C 30.04in /  1017.2hPa SSW 0.1mph /  0.2km/h 2mph /  3.2km/h 86% 0.00in /  0mm 7 W/m2
06:44 64.9 °F /  18.3 °C 60.6 °F /  15.9 °C 30.04in /  1017.2hPa SSW 0.2mph /  0.3km/h 3mph /  4.8km/h 86% 0.00in /  0mm 11 W/m2
06:49 65 °F /  18.3 °C 60.7 °F /  15.9 °C 30.04in /  1017.2hPa SW 0.2mph /  0.3km/h 5mph /  8km/h 86% 0.00in /  0mm 14 W/m2
06:54 65 °F /  18.3 °C 60.8 °F /  16 °C 30.04in /  1017.2hPa SW 0.4mph /  0.6km/h 5mph /  8km/h 86% 0.00in /  0mm 19 W/m2
06:59 65.1 °F /  18.4 °C 60.8 °F /  16 °C 30.04in /  1017.2hPa SW 0.3mph /  0.5km/h 5mph /  8km/h 86% 0.00in /  0mm 26 W/m2
07:04 65.2 °F /  18.4 °C 60.9 °F /  16.1 °C 30.04in /  1017.2hPa SW 1.1mph /  1.8km/h 5mph /  8km/h 86% 0.00in /  0mm 33 W/m2
07:09 65.3 °F /  18.5 °C 61.1 °F /  16.2 °C 30.04in /  1017.2hPa SW 0.7mph /  1.1km/h 5mph /  8km/h 86% 0.00in /  0mm 37 W/m2
07:14 65.5 °F /  18.6 °C 61.2 °F /  16.2 °C 30.04in /  1017.2hPa SW 1.6mph /  2.6km/h 6mph /  9.7km/h 86% 0.00in /  0mm 37 W/m2
07:19 65.6 °F /  18.7 °C 61.3 °F /  16.3 °C 30.04in /  1017.2hPa WSW 1.1mph /  1.8km/h 6mph /  9.7km/h 86% 0.00in /  0mm 39 W/m2
07:24 65.8 °F /  18.8 °C 61.5 °F /  16.4 °C 30.04in /  1017.2hPa West 1.4mph /  2.3km/h 8mph /  12.9km/h 86% 0.00in /  0mm 46 W/m2
07:29 66 °F /  18.9 °C 61.7 °F /  16.5 °C 30.04in /  1017.2hPa WSW 0.4mph /  0.6km/h 8mph /  12.9km/h 86% 0.00in /  0mm 56 W/m2
07:34 66.2 °F /  19 °C 61.9 °F /  16.6 °C 30.04in /  1017.2hPa SW 0.1mph /  0.2km/h 8mph /  12.9km/h 86% 0.00in /  0mm 60 W/m2
07:39 66.3 °F /  19.1 °C 62 °F /  16.7 °C 30.04in /  1017.2hPa SW 0.5mph /  0.8km/h 6mph /  9.7km/h 86% 0.00in /  0mm 62 W/m2
07:44 66.5 °F /  19.2 °C 62.1 °F /  16.7 °C 30.04in /  1017.2hPa SSW 0.3mph /  0.5km/h 6mph /  9.7km/h 85.5% 0.00in /  0mm 63 W/m2
07:49 66.7 °F /  19.3 °C 62.3 °F /  16.8 °C 30.04in /  1017.2hPa SW 0.9mph /  1.4km/h 6mph /  9.7km/h 85.7% 0.00in /  0mm 63 W/m2
07:54 66.9 °F /  19.4 °C 62.2 °F /  16.8 °C 30.03in /  1016.8hPa SW 1.4mph /  2.3km/h 6mph /  9.7km/h 85% 0.00in /  0mm 70 W/m2
07:59 67 °F /  19.4 °C 62.3 °F /  16.8 °C 30.03in /  1016.8hPa SW 0.4mph /  0.6km/h 6mph /  9.7km/h 85% 0.00in /  0mm 79 W/m2
08:00 67 °F /  19.4 °C 62.3 °F /  16.8 °C 30.03in /  1016.8hPa SW 1.5mph /  2.4km/h 6mph /  9.7km/h 85% 0.00in /  0mm 79 W/m2
08:09 67.3 °F /  19.6 °C 62.3 °F /  16.8 °C 30.03in /  1016.8hPa SW 1mph /  1.6km/h 5mph /  8km/h 84% 0.00in /  0mm 93 W/m2
08:14 67.4 °F /  19.7 °C 62.4 °F /  16.9 °C 30.03in /  1016.8hPa West 0.8mph /  1.3km/h 5mph /  8km/h 84% 0.00in /  0mm 100 W/m2
08:19 67.7 °F /  19.8 °C 62.7 °F /  17.1 °C 30.03in /  1016.8hPa WSW 0.5mph /  0.8km/h 5mph /  8km/h 84% 0.00in /  0mm 104 W/m2
08:24 67.9 °F /  19.9 °C 62.9 °F /  17.2 °C 30.03in /  1016.8hPa WSW 0.2mph /  0.3km/h 5mph /  8km/h 84% 0.00in /  0mm 114 W/m2
08:29 68.2 °F /  20.1 °C 63 °F /  17.2 °C 30.04in /  1017.2hPa WSW 1.2mph /  1.9km/h 10mph /  16.1km/h 83.6% 0.00in /  0mm 114 W/m2
08:34 68.3 °F /  20.2 °C 63 °F /  17.2 °C 30.04in /  1017.2hPa WSW 1.5mph /  2.4km/h 10mph /  16.1km/h 83.1% 0.00in /  0mm 105 W/m2
08:39 68.3 °F /  20.2 °C 62.9 °F /  17.2 °C 30.04in /  1017.2hPa SW 1.5mph /  2.4km/h 9mph /  14.5km/h 82.8% 0.00in /  0mm 102 W/m2
08:44 68.4 °F /  20.2 °C 63.1 °F /  17.3 °C 30.04in /  1017.2hPa WSW 1.4mph /  2.3km/h 9mph /  14.5km/h 83% 0.00in /  0mm 105 W/m2
08:49 68.5 °F /  20.3 °C 62.9 °F /  17.2 °C 30.03in /  1016.8hPa WSW 1.7mph /  2.7km/h 9mph /  14.5km/h 82.3% 0.00in /  0mm 139 W/m2
08:54 68.6 °F /  20.3 °C 62.9 °F /  17.2 °C 30.03in /  1016.8hPa SW 1mph /  1.6km/h 9mph /  14.5km/h 82% 0.00in /  0mm 229 W/m2
08:59 68.8 °F /  20.4 °C 63.3 °F /  17.4 °C 30.03in /  1016.8hPa SW 0.9mph /  1.4km/h 9mph /  14.5km/h 82.6% 0.00in /  0mm 281 W/m2
09:04 69.2 °F /  20.7 °C 63.5 °F /  17.5 °C 30.02in /  1016.5hPa SW 0.7mph /  1.1km/h 9mph /  14.5km/h 82.1% 0.00in /  0mm 316 W/m2
09:09 69.8 °F /  21 °C 63.7 °F /  17.6 °C 30.02in /  1016.5hPa SW 2.3mph /  3.7km/h 11mph /  17.7km/h 81% 0.00in /  0mm 329 W/m2
09:14 70.4 °F /  21.3 °C 63.9 °F /  17.7 °C 30.02in /  1016.5hPa SW 0.9mph /  1.4km/h 11mph /  17.7km/h 80% 0.00in /  0mm 320 W/m2
09:19 71 °F /  21.7 °C 64.4 °F /  18 °C 30.02in /  1016.5hPa WSW 1mph /  1.6km/h 11mph /  17.7km/h 79.8% 0.00in /  0mm 338 W/m2
09:24 71.5 °F /  21.9 °C 64.7 °F /  18.2 °C 30.02in /  1016.5hPa WSW 0.7mph /  1.1km/h 11mph /  17.7km/h 79% 0.00in /  0mm 348 W/m2
09:29 72.2 °F /  22.3 °C 65 °F /  18.3 °C 30.02in /  1016.5hPa SW 0.7mph /  1.1km/h 11mph /  17.7km/h 78.2% 0.00in /  0mm 388 W/m2
09:34 72.7 °F /  22.6 °C 65 °F /  18.3 °C 30.02in /  1016.5hPa SW 1.3mph /  2.1km/h 11mph /  17.7km/h 76.9% 0.00in /  0mm 399 W/m2
09:39 73.2 °F /  22.9 °C 65 °F /  18.3 °C 30.02in /  1016.5hPa SW 0.9mph /  1.4km/h 7mph /  11.3km/h 75.5% 0.00in /  0mm 411 W/m2
09:44 73.7 °F /  23.2 °C 65.2 °F /  18.4 °C 30.02in /  1016.5hPa WSW 1.2mph /  1.9km/h 9mph /  14.5km/h 75% 0.00in /  0mm 461 W/m2
09:49 74.2 °F /  23.4 °C 65.8 °F /  18.8 °C 30.02in /  1016.5hPa Calm   9mph /  14.5km/h 75.1% 0.00in /  0mm 473 W/m2
09:54 74.8 °F /  23.8 °C 66.5 °F /  19.2 °C 30.02in /  1016.5hPa SW 0.9mph /  1.4km/h 9mph /  14.5km/h 75.2% 0.00in /  0mm 485 W/m2
09:59 75.4 °F /  24.1 °C 66 °F /  18.9 °C 30.02in /  1016.5hPa WSW 0.9mph /  1.4km/h 9mph /  14.5km/h 72.5% 0.00in /  0mm 501 W/m2
10:04 75.9 °F /  24.4 °C 66.2 °F /  19 °C 30.02in /  1016.5hPa WSW 1.1mph /  1.8km/h 9mph /  14.5km/h 71.8% 0.00in /  0mm 501 W/m2
10:09 76.4 °F /  24.7 °C 66.3 °F /  19.1 °C 30.02in /  1016.5hPa SW 2mph /  3.2km/h 12mph /  19.3km/h 71% 0.00in /  0mm 497 W/m2
10:14 76.7 °F /  24.8 °C 66.1 °F /  18.9 °C 30.02in /  1016.5hPa SW 0.9mph /  1.4km/h 12mph /  19.3km/h 69.9% 0.00in /  0mm 504 W/m2
10:19 76.9 °F /  24.9 °C 66 °F /  18.9 °C 30.02in /  1016.5hPa SSW 1.5mph /  2.4km/h 12mph /  19.3km/h 68.9% 0.00in /  0mm 513 W/m2
10:24 77.2 °F /  25.1 °C 66.2 °F /  19 °C 30.02in /  1016.5hPa WSW 1.5mph /  2.4km/h 12mph /  19.3km/h 68.9% 0.00in /  0mm 534 W/m2
10:29 77.4 °F /  25.2 °C 66.3 °F /  19.1 °C 30.02in /  1016.5hPa SW 2.1mph /  3.4km/h 12mph /  19.3km/h 68.7% 0.00in /  0mm 554 W/m2
10:34 77.6 °F /  25.3 °C 66.5 °F /  19.2 °C 30.02in /  1016.5hPa SW 1.3mph /  2.1km/h 12mph /  19.3km/h 68.7% 0.00in /  0mm 543 W/m2
10:39 77.8 °F /  25.4 °C 66.3 °F /  19.1 °C 30.02in /  1016.5hPa SW 1.7mph /  2.7km/h 7mph /  11.3km/h 67.8% 0.00in /  0mm 527 W/m2
10:44 77.7 °F /  25.4 °C 66.2 °F /  19 °C 30.02in /  1016.5hPa SW 1mph /  1.6km/h 10mph /  16.1km/h 67.7% 0.00in /  0mm 508 W/m2
10:49 77.8 °F /  25.4 °C 66.8 °F /  19.3 °C 30.02in /  1016.5hPa SW 0.6mph /  1km/h 10mph /  16.1km/h 68.9% 0.00in /  0mm 513 W/m2
10:54 78 °F /  25.6 °C 66.6 °F /  19.2 °C 30.02in /  1016.5hPa SW 1.2mph /  1.9km/h 10mph /  16.1km/h 67.8% 0.00in /  0mm 499 W/m2
10:59 77.9 °F /  25.5 °C 66.3 °F /  19.1 °C 30.02in /  1016.5hPa SW 1.2mph /  1.9km/h 10mph /  16.1km/h 67.3% 0.00in /  0mm 536 W/m2
11:04 77.9 °F /  25.5 °C 66.6 °F /  19.2 °C 30.02in /  1016.5hPa SW 0.7mph /  1.1km/h 10mph /  16.1km/h 68.3% 0.00in /  0mm 619 W/m2
11:09 78 °F /  25.6 °C 66.7 °F /  19.3 °C 30.01in /  1016.1hPa SW 1.2mph /  1.9km/h 10mph /  16.1km/h 68.4% 0.00in /  0mm 613 W/m2
11:14 78.3 °F /  25.7 °C 67 °F /  19.4 °C 30.01in /  1016.1hPa SW 2.3mph /  3.7km/h 10mph /  16.1km/h 68.2% 0.00in /  0mm 608 W/m2
11:19 78.8 °F /  26 °C 67.1 °F /  19.5 °C 30.01in /  1016.1hPa WSW 0.6mph /  1km/h 10mph /  16.1km/h 67.2% 0.00in /  0mm 599 W/m2
11:24 79.4 °F /  26.3 °C 67.8 °F /  19.9 °C 30.00in /  1015.8hPa WSW 1.4mph /  2.3km/h 10mph /  16.1km/h 67.6% 0.00in /  0mm 582 W/m2
11:29 79.8 °F /  26.6 °C 67.9 °F /  19.9 °C 30.00in /  1015.8hPa WSW 1.6mph /  2.6km/h 10mph /  16.1km/h 66.9% 0.00in /  0mm 582 W/m2
11:34 79.7 °F /  26.5 °C 66.7 °F /  19.3 °C 30.00in /  1015.8hPa WSW 2.8mph /  4.5km/h 13mph /  20.9km/h 64.6% 0.00in /  0mm 350 W/m2
11:39 79.4 °F /  26.3 °C 67.1 °F /  19.5 °C 29.99in /  1015.5hPa SW 1.4mph /  2.3km/h 13mph /  20.9km/h 66% 0.00in /  0mm 425 W/m2
11:44 79.5 °F /  26.4 °C 67.5 °F /  19.7 °C 30.00in /  1015.8hPa SW 1.3mph /  2.1km/h 13mph /  20.9km/h 66.7% 0.00in /  0mm 633 W/m2
11:49 79.8 °F /  26.6 °C 67.7 °F /  19.8 °C 30.00in /  1015.8hPa WSW 1.1mph /  1.8km/h 13mph /  20.9km/h 66.6% 0.00in /  0mm 524 W/m2
11:54 80 °F /  26.7 °C 67 °F /  19.4 °C 30.00in /  1015.8hPa WSW 2.2mph /  3.5km/h 13mph /  20.9km/h 64.5% 0.00in /  0mm 227 W/m2
11:59 80.1 °F /  26.7 °C 67.3 °F /  19.6 °C 30.00in /  1015.8hPa WSW 1.5mph /  2.4km/h 13mph /  20.9km/h 65.1% 0.00in /  0mm 167 W/m2
12:09 79.8 °F /  26.6 °C 67.4 °F /  19.7 °C 29.99in /  1015.5hPa WSW 2.1mph /  3.4km/h 12mph /  19.3km/h 65.7% 0.00in /  0mm 163 W/m2
12:14 79.8 °F /  26.6 °C 67.1 °F /  19.5 °C 29.99in /  1015.5hPa WSW 2.3mph /  3.7km/h 12mph /  19.3km/h 65.3% 0.00in /  0mm 179 W/m2
12:19 79.7 °F /  26.5 °C 67 °F /  19.4 °C 29.99in /  1015.5hPa SW 1.8mph /  2.9km/h 12mph /  19.3km/h 65.2% 0.00in /  0mm 183 W/m2
12:24 79.7 °F /  26.5 °C 67 °F /  19.4 °C 29.98in /  1015.1hPa SW 0.6mph /  1km/h 12mph /  19.3km/h 65.2% 0.00in /  0mm 174 W/m2
12:29 79.8 °F /  26.6 °C 67.7 °F /  19.8 °C 29.98in /  1015.1hPa WSW 2mph /  3.2km/h 14mph /  22.5km/h 66.5% 0.00in /  0mm 220 W/m2
12:34 79.9 °F /  26.6 °C 67.4 °F /  19.7 °C 29.98in /  1015.1hPa SW 1.4mph /  2.3km/h 14mph /  22.5km/h 65.8% 0.00in /  0mm 190 W/m2
12:39 80 °F /  26.7 °C 67.2 °F /  19.6 °C 29.98in /  1015.1hPa SW 1.3mph /  2.1km/h 11mph /  17.7km/h 65.1% 0.00in /  0mm 190 W/m2
12:44 80.1 °F /  26.7 °C 67.3 °F /  19.6 °C 29.97in /  1014.8hPa SW 1.1mph /  1.8km/h 11mph /  17.7km/h 65.2% 0.00in /  0mm 174 W/m2
12:49 80.1 °F /  26.7 °C 67.5 °F /  19.7 °C 29.97in /  1014.8hPa WSW 1.3mph /  2.1km/h 11mph /  17.7km/h 65.4% 0.00in /  0mm 171 W/m2
12:54 80.3 °F /  26.8 °C 67.9 °F /  19.9 °C 29.97in /  1014.8hPa WSW 1mph /  1.6km/h 11mph /  17.7km/h 65.9% 0.00in /  0mm 202 W/m2
12:59 80.4 °F /  26.9 °C 67.5 °F /  19.7 °C 29.97in /  1014.8hPa SSW 1.1mph /  1.8km/h 11mph /  17.7km/h 64.8% 0.00in /  0mm 202 W/m2
13:04 80.4 °F /  26.9 °C 67.7 °F /  19.8 °C 29.97in /  1014.8hPa Calm   11mph /  17.7km/h 65.3% 0.00in /  0mm 193 W/m2
13:09 80.5 °F /  26.9 °C 68.2 °F /  20.1 °C 29.97in /  1014.8hPa Calm   1mph /  1.6km/h 66.2% 0.00in /  0mm 200 W/m2
13:14 80.7 °F /  27.1 °C 68.2 °F /  20.1 °C 29.97in /  1014.8hPa WSW 0.8mph /  1.3km/h 6mph /  9.7km/h 65.8% 0.00in /  0mm 192 W/m2
13:19 80.9 °F /  27.2 °C 68.5 °F /  20.3 °C 29.97in /  1014.8hPa WSW 0.4mph /  0.6km/h 6mph /  9.7km/h 66% 0.00in /  0mm 169 W/m2
13:24 81.1 °F /  27.3 °C 68.4 °F /  20.2 °C 29.96in /  1014.4hPa SW 0.8mph /  1.3km/h 6mph /  9.7km/h 65.3% 0.00in /  0mm 156 W/m2
13:29 81.3 °F /  27.4 °C 68.2 °F /  20.1 °C 29.97in /  1014.8hPa SW 2mph /  3.2km/h 6mph /  9.7km/h 64.6% 0.00in /  0mm 167 W/m2
13:34 81.3 °F /  27.4 °C 68 °F /  20 °C 29.96in /  1014.4hPa WSW 0.4mph /  0.6km/h 6mph /  9.7km/h 64% 0.00in /  0mm 323 W/m2
13:39 81.4 °F /  27.4 °C 68.8 °F /  20.4 °C 29.96in /  1014.4hPa WSW 1.4mph /  2.3km/h 6mph /  9.7km/h 65.7% 0.00in /  0mm 186 W/m2
13:44 81.5 °F /  27.5 °C 68.3 °F /  20.2 °C 29.96in /  1014.4hPa SW 2.8mph /  4.5km/h 13mph /  20.9km/h 64.4% 0.00in /  0mm 146 W/m2
13:49 81.6 °F /  27.6 °C 68.4 °F /  20.2 °C 29.96in /  1014.4hPa WSW 0.8mph /  1.3km/h 13mph /  20.9km/h 64.3% 0.00in /  0mm 146 W/m2
13:54 81.7 °F /  27.6 °C 68.8 °F /  20.4 °C 29.95in /  1014.1hPa WSW 0.2mph /  0.3km/h 13mph /  20.9km/h 65% 0.00in /  0mm 135 W/m2
13:59 81.9 °F /  27.7 °C 69.1 °F /  20.6 °C 29.95in /  1014.1hPa SW 1.5mph /  2.4km/h 13mph /  20.9km/h 65.3% 0.00in /  0mm 128 W/m2
14:04 81.9 °F /  27.7 °C 68.6 °F /  20.3 °C 29.95in /  1014.1hPa SW 1.6mph /  2.6km/h 13mph /  20.9km/h 64.2% 0.00in /  0mm 125 W/m2
14:09 81.9 °F /  27.7 °C 68.3 °F /  20.2 °C 29.95in /  1014.1hPa SW 0.4mph /  0.6km/h 6mph /  9.7km/h 63.7% 0.00in /  0mm 167 W/m2
14:14 81.9 °F /  27.7 °C 69.1 °F /  20.6 °C 29.95in /  1014.1hPa WSW 1.2mph /  1.9km/h 7mph /  11.3km/h 65.3% 0.00in /  0mm 227 W/m2
14:19 82.1 °F /  27.8 °C 68.8 °F /  20.4 °C 29.95in /  1014.1hPa WSW 1.3mph /  2.1km/h 7mph /  11.3km/h 64.1% 0.00in /  0mm 316 W/m2
14:24 82.3 °F /  27.9 °C 69.4 °F /  20.8 °C 29.94in /  1013.8hPa WSW 0.6mph /  1km/h 7mph /  11.3km/h 65% 0.00in /  0mm 541 W/m2
14:29 82.6 °F /  28.1 °C 69.4 °F /  20.8 °C 29.94in /  1013.8hPa SW 1.4mph /  2.3km/h 9mph /  14.5km/h 64.5% 0.00in /  0mm 612 W/m2
14:34 82.8 °F /  28.2 °C 69 °F /  20.6 °C 29.95in /  1014.1hPa SW 2.2mph /  3.5km/h 9mph /  14.5km/h 63.1% 0.00in /  0mm 612 W/m2
14:39 83 °F /  28.3 °C 69.1 °F /  20.6 °C 29.95in /  1014.1hPa SW 0.9mph /  1.4km/h 9mph /  14.5km/h 63.1% 0.00in /  0mm 438 W/m2
14:44 83 °F /  28.3 °C 69.1 °F /  20.6 °C 29.95in /  1014.1hPa SW 2.7mph /  4.3km/h 12mph /  19.3km/h 63% 0.00in /  0mm 517 W/m2
14:49 83 °F /  28.3 °C 69.3 °F /  20.7 °C 29.95in /  1014.1hPa SW 2mph /  3.2km/h 12mph /  19.3km/h 63.4% 0.00in /  0mm 584 W/m2
14:54 83.1 °F /  28.4 °C 69.3 °F /  20.7 °C 29.95in /  1014.1hPa WSW 1.2mph /  1.9km/h 12mph /  19.3km/h 63.2% 0.00in /  0mm 540 W/m2
14:59 83.3 °F /  28.5 °C 69.8 °F /  21 °C 29.95in /  1014.1hPa SW 1mph /  1.6km/h 12mph /  19.3km/h 64% 0.00in /  0mm 575 W/m2
15:04 83.4 °F /  28.6 °C 69.6 °F /  20.9 °C 29.95in /  1014.1hPa WSW 1.4mph /  2.3km/h 13mph /  20.9km/h 63.2% 0.00in /  0mm 559 W/m2
15:09 83.6 °F /  28.7 °C 69.8 °F /  21 °C 29.95in /  1014.1hPa WSW 0.9mph /  1.4km/h 13mph /  20.9km/h 63.2% 0.00in /  0mm 541 W/m2
15:14 83.8 °F /  28.8 °C 70.1 °F /  21.2 °C 29.95in /  1014.1hPa WSW 0.7mph /  1.1km/h 13mph /  20.9km/h 63.5% 0.00in /  0mm 520 W/m2
15:19 83.9 °F /  28.8 °C 69.9 °F /  21.1 °C 29.95in /  1014.1hPa WSW 2.5mph /  4km/h 13mph /  20.9km/h 62.8% 0.00in /  0mm 480 W/m2
15:24 84 °F /  28.9 °C 69.9 °F /  21.1 °C 29.95in /  1014.1hPa West 0.6mph /  1km/h 13mph /  20.9km/h 62.8% 0.00in /  0mm 483 W/m2
15:29 84 °F /  28.9 °C 70 °F /  21.1 °C 29.94in /  1013.8hPa WNW 0.4mph /  0.6km/h 13mph /  20.9km/h 63% 0.00in /  0mm 520 W/m2
15:34 84 °F /  28.9 °C 70 °F /  21.1 °C 29.93in /  1013.4hPa West 1mph /  1.6km/h 13mph /  20.9km/h 62.9% 0.00in /  0mm 494 W/m2
15:39 84.1 °F /  28.9 °C 70.4 °F /  21.3 °C 29.93in /  1013.4hPa West 0.2mph /  0.3km/h 11mph /  17.7km/h 63.5% 0.00in /  0mm 503 W/m2
15:44 84.2 °F /  29 °C 70.4 °F /  21.3 °C 29.93in /  1013.4hPa WSW 2.1mph /  3.4km/h 11mph /  17.7km/h 63.2% 0.00in /  0mm 483 W/m2
15:49 84.3 °F /  29.1 °C 69.9 °F /  21.1 °C 29.93in /  1013.4hPa WSW 2.2mph /  3.5km/h 11mph /  17.7km/h 62% 0.00in /  0mm 329 W/m2
15:54 84.2 °F /  29 °C 69.9 °F /  21.1 °C 29.93in /  1013.4hPa WSW 1.7mph /  2.7km/h 11mph /  17.7km/h 62.3% 0.00in /  0mm 311 W/m2
15:59 83.8 °F /  28.8 °C 69.9 °F /  21.1 °C 29.93in /  1013.4hPa SW 0.5mph /  0.8km/h 11mph /  17.7km/h 63.1% 0.00in /  0mm 178 W/m2
16:09 83.1 °F /  28.4 °C 69.8 °F /  21 °C 29.92in /  1013.1hPa SW 1.8mph /  2.9km/h 9mph /  14.5km/h 64.3% 0.00in /  0mm 113 W/m2
16:14 82.8 °F /  28.2 °C 69.6 °F /  20.9 °C 29.92in /  1013.1hPa WSW 2.3mph /  3.7km/h 10mph /  16.1km/h 64.3% 0.00in /  0mm 102 W/m2
16:19 82.7 °F /  28.2 °C 69.9 °F /  21.1 °C 29.93in /  1013.4hPa SW 1mph /  1.6km/h 10mph /  16.1km/h 65.4% 0.00in /  0mm 107 W/m2
16:24 82.6 °F /  28.1 °C 69.5 °F /  20.8 °C 29.92in /  1013.1hPa SW 1.7mph /  2.7km/h 10mph /  16.1km/h 64.7% 0.00in /  0mm 123 W/m2
16:29 82.5 °F /  28.1 °C 69.6 °F /  20.9 °C 29.92in /  1013.1hPa WSW 0.6mph /  1km/h 10mph /  16.1km/h 65.1% 0.00in /  0mm 137 W/m2
16:34 82.4 °F /  28 °C 69.6 °F /  20.9 °C 29.93in /  1013.4hPa WSW 2.2mph /  3.5km/h 13mph /  20.9km/h 65.2% 0.00in /  0mm 130 W/m2
16:39 82.3 °F /  27.9 °C 69.6 °F /  20.9 °C 29.93in /  1013.4hPa WNW 0.4mph /  0.6km/h 13mph /  20.9km/h 65.4% 0.00in /  0mm 114 W/m2
16:44 82.1 °F /  27.8 °C 69.6 °F /  20.9 °C 29.93in /  1013.4hPa WSW 1.2mph /  1.9km/h 13mph /  20.9km/h 65.8% 0.00in /  0mm 113 W/m2
16:49 82 °F /  27.8 °C 69.7 °F /  20.9 °C 29.93in /  1013.4hPa WSW 0.1mph /  0.2km/h 13mph /  20.9km/h 66.4% 0.00in /  0mm 104 W/m2
16:54 81.9 °F /  27.7 °C 70.1 °F /  21.2 °C 29.92in /  1013.1hPa WSW 0.2mph /  0.3km/h 13mph /  20.9km/h 67.3% 0.00in /  0mm 111 W/m2
16:59 81.9 °F /  27.7 °C 70.3 °F /  21.3 °C 29.92in /  1013.1hPa WSW 1mph /  1.6km/h 13mph /  20.9km/h 68% 0.00in /  0mm 100 W/m2
17:04 81.9 °F /  27.7 °C 69.9 °F /  21.1 °C 29.92in /  1013.1hPa WSW 0.4mph /  0.6km/h 13mph /  20.9km/h 67.1% 0.00in /  0mm 76 W/m2
17:09 81.9 °F /  27.7 °C 69.8 °F /  21 °C 29.92in /  1013.1hPa Calm   3mph /  4.8km/h 66.8% 0.00in /  0mm 60 W/m2
17:14 81.8 °F /  27.7 °C 69.8 °F /  21 °C 29.92in /  1013.1hPa WSW 0.9mph /  1.4km/h 6mph /  9.7km/h 67% 0.00in /  0mm 54 W/m2
17:19 81.7 °F /  27.6 °C 69.7 °F /  20.9 °C 29.92in /  1013.1hPa WSW 0.3mph /  0.5km/h 6mph /  9.7km/h 67% 0.00in /  0mm 53 W/m2
17:24 81.6 °F /  27.6 °C 69.6 °F /  20.9 °C 29.92in /  1013.1hPa West 0.8mph /  1.3km/h 6mph /  9.7km/h 67% 0.00in /  0mm 47 W/m2
17:29 81.4 °F /  27.4 °C 69.7 °F /  20.9 °C 29.92in /  1013.1hPa Calm   6mph /  9.7km/h 67.7% 0.00in /  0mm 44 W/m2
17:34 81.3 °F /  27.4 °C 69.8 °F /  21 °C 29.92in /  1013.1hPa West 0.1mph /  0.2km/h 6mph /  9.7km/h 68% 0.00in /  0mm 42 W/m2
17:39 81.1 °F /  27.3 °C 69.7 °F /  20.9 °C 29.93in /  1013.4hPa WSW 0.2mph /  0.3km/h 5mph /  8km/h 68.2% 0.00in /  0mm 40 W/m2
17:44 81 °F /  27.2 °C 69.6 °F /  20.9 °C 29.93in /  1013.4hPa West 1.3mph /  2.1km/h 10mph /  16.1km/h 68.4% 0.00in /  0mm 39 W/m2
17:49 80.9 °F /  27.2 °C 69.5 °F /  20.8 °C 29.93in /  1013.4hPa Calm   10mph /  16.1km/h 68.3% 0.00in /  0mm 37 W/m2
17:54 80.8 °F /  27.1 °C 69.9 °F /  21.1 °C 29.93in /  1013.4hPa WSW 0.1mph /  0.2km/h 10mph /  16.1km/h 69.7% 0.00in /  0mm 33 W/m2
17:59 80.6 °F /  27 °C 70 °F /  21.1 °C 29.93in /  1013.4hPa West 0.2mph /  0.3km/h 10mph /  16.1km/h 70% 0.00in /  0mm 32 W/m2
18:04 80.5 °F /  26.9 °C 69.8 °F /  21 °C 29.93in /  1013.4hPa Calm   10mph /  16.1km/h 70% 0.00in /  0mm 30 W/m2
18:09 80.4 °F /  26.9 °C 69.7 °F /  20.9 °C 29.93in /  1013.4hPa West 0.1mph /  0.2km/h 1mph /  1.6km/h 70% 0.00in /  0mm 28 W/m2
18:14 80.2 °F /  26.8 °C 69.5 °F /  20.8 °C 29.93in /  1013.4hPa WSW 0.1mph /  0.2km/h 3mph /  4.8km/h 70% 0.00in /  0mm 25 W/m2
18:19 80 °F /  26.7 °C 69.7 °F /  20.9 °C 29.93in /  1013.4hPa WSW 0.5mph /  0.8km/h 5mph /  8km/h 70.7% 0.00in /  0mm 23 W/m2
18:24 79.9 °F /  26.6 °C 69.6 °F /  20.9 °C 29.93in /  1013.4hPa WSW 0.2mph /  0.3km/h 5mph /  8km/h 71% 0.00in /  0mm 21 W/m2
18:29 79.7 °F /  26.5 °C 69.4 °F /  20.8 °C 29.93in /  1013.4hPa West 0.2mph /  0.3km/h 5mph /  8km/h 71% 0.00in /  0mm 19 W/m2
18:34 79.5 °F /  26.4 °C 69.6 °F /  20.9 °C 29.93in /  1013.4hPa Calm   5mph /  8km/h 71.8% 0.00in /  0mm 18 W/m2
18:39 79.4 °F /  26.3 °C 69.6 °F /  20.9 °C 29.93in /  1013.4hPa Calm     72% 0.00in /  0mm 16 W/m2
18:44 79.2 °F /  26.2 °C 69.4 °F /  20.8 °C 29.93in /  1013.4hPa West 0.1mph /  0.2km/h 3mph /  4.8km/h 72% 0.00in /  0mm 12 W/m2
18:49 79 °F /  26.1 °C 69.2 °F /  20.7 °C 29.93in /  1013.4hPa West 0.1mph /  0.2km/h 3mph /  4.8km/h 72% 0.00in /  0mm 9 W/m2
18:54 78.8 °F /  26 °C 69.2 °F /  20.7 °C 29.94in /  1013.8hPa Calm   3mph /  4.8km/h 72.4% 0.00in /  0mm 5 W/m2
18:59 78.6 °F /  25.9 °C 69.3 °F /  20.7 °C 29.94in /  1013.8hPa Calm   3mph /  4.8km/h 73% 0.00in /  0mm 0 W/m2
19:04 78.4 °F /  25.8 °C 69.1 °F /  20.6 °C 29.94in /  1013.8hPa Calm   3mph /  4.8km/h 73% 0.00in /  0mm 0 W/m2
19:09 78.2 °F /  25.7 °C 68.9 °F /  20.5 °C 29.94in /  1013.8hPa Calm     73% 0.00in /  0mm 0 W/m2
19:14 78.1 °F /  25.6 °C 68.9 °F /  20.5 °C 29.94in /  1013.8hPa Calm   3mph /  4.8km/h 73.5% 0.00in /  0mm 0 W/m2
19:19 77.9 °F /  25.5 °C 68.9 °F /  20.5 °C 29.93in /  1013.4hPa Calm   3mph /  4.8km/h 74% 0.00in /  0mm 0 W/m2
19:24 77.7 °F /  25.4 °C 68.7 °F /  20.4 °C 29.94in /  1013.8hPa Calm   3mph /  4.8km/h 74% 0.00in /  0mm 0 W/m2
19:29 77.5 °F /  25.3 °C 68.9 °F /  20.5 °C 29.94in /  1013.8hPa Calm   3mph /  4.8km/h 74.9% 0.00in /  0mm 0 W/m2
19:34 77.3 °F /  25.2 °C 68.8 °F /  20.4 °C 29.94in /  1013.8hPa Calm   3mph /  4.8km/h 75% 0.00in /  0mm 0 W/m2
19:39 77.1 °F /  25.1 °C 68.6 °F /  20.3 °C 29.94in /  1013.8hPa Calm     75% 0.00in /  0mm 0 W/m2
19:44 77 °F /  25 °C 68.8 °F /  20.4 °C 29.94in /  1013.8hPa Calm     76% 0.00in /  0mm 0 W/m2
19:49 76.8 °F /  24.9 °C 68.7 °F /  20.4 °C 29.94in /  1013.8hPa Calm   1mph /  1.6km/h 76% 0.00in /  0mm 0 W/m2
19:54 76.7 °F /  24.8 °C 68.5 °F /  20.3 °C 29.94in /  1013.8hPa Calm   1mph /  1.6km/h 76% 0.00in /  0mm 0 W/m2
19:59 76.6 °F /  24.8 °C 68.6 °F /  20.3 °C 29.94in /  1013.8hPa Calm   1mph /  1.6km/h 76.4% 0.00in /  0mm 0 W/m2
20:09 76.3 °F /  24.6 °C 68.6 °F /  20.3 °C 29.94in /  1013.8hPa West 0.2mph /  0.3km/h 4mph /  6.4km/h 77% 0.00in /  0mm 0 W/m2
20:14 76.2 °F /  24.6 °C 68.4 °F /  20.2 °C 29.95in /  1014.1hPa Calm   4mph /  6.4km/h 77% 0.00in /  0mm 0 W/m2
20:19 76 °F /  24.4 °C 68.3 °F /  20.2 °C 29.95in /  1014.1hPa Calm   4mph /  6.4km/h 77% 0.00in /  0mm 0 W/m2
20:24 75.9 °F /  24.4 °C 68.3 °F /  20.2 °C 29.95in /  1014.1hPa Calm   4mph /  6.4km/h 77.3% 0.00in /  0mm 0 W/m2
20:29 75.8 °F /  24.3 °C 68.5 °F /  20.3 °C 29.95in /  1014.1hPa Calm   4mph /  6.4km/h 78% 0.00in /  0mm 0 W/m2
20:34 75.7 °F /  24.3 °C 68.3 °F /  20.2 °C 29.96in /  1014.4hPa Calm   4mph /  6.4km/h 78% 0.00in /  0mm 0 W/m2
20:39 75.6 °F /  24.2 °C 68.2 °F /  20.1 °C 29.96in /  1014.4hPa Calm   1mph /  1.6km/h 78% 0.00in /  0mm 0 W/m2
20:44 75.5 °F /  24.2 °C 68.3 °F /  20.2 °C 29.96in /  1014.4hPa SW 0.1mph /  0.2km/h 4mph /  6.4km/h 78.5% 0.00in /  0mm 0 W/m2
20:49 75.3 °F /  24.1 °C 68.4 °F /  20.2 °C 29.96in /  1014.4hPa Calm   4mph /  6.4km/h 79% 0.00in /  0mm 0 W/m2
20:54 75.2 °F /  24 °C 68.2 °F /  20.1 °C 29.96in /  1014.4hPa Calm   4mph /  6.4km/h 78.8% 0.00in /  0mm 0 W/m2
20:59 75.2 °F /  24 °C 68.2 °F /  20.1 °C 29.96in /  1014.4hPa WSW 0.3mph /  0.5km/h 4mph /  6.4km/h 79% 0.00in /  0mm 0 W/m2
21:04 75.1 °F /  23.9 °C 68.2 °F /  20.1 °C 29.96in /  1014.4hPa WSW 0.1mph /  0.2km/h 4mph /  6.4km/h 79% 0.00in /  0mm 0 W/m2
21:09 75.1 °F /  23.9 °C 68.5 °F /  20.3 °C 29.96in /  1014.4hPa Calm   2mph /  3.2km/h 79.9% 0.00in /  0mm 0 W/m2
21:14 75.1 °F /  23.9 °C 68.5 °F /  20.3 °C 29.96in /  1014.4hPa Calm   2mph /  3.2km/h 80% 0.00in /  0mm 0 W/m2
21:19 75.1 °F /  23.9 °C 68.5 °F /  20.3 °C 29.96in /  1014.4hPa Calm   2mph /  3.2km/h 80% 0.00in /  0mm 0 W/m2
21:24 75.1 °F /  23.9 °C 68.3 °F /  20.2 °C 29.96in /  1014.4hPa Calm   2mph /  3.2km/h 79.5% 0.00in /  0mm 0 W/m2
21:29 75 °F /  23.9 °C 68.1 °F /  20.1 °C 29.96in /  1014.4hPa Calm   2mph /  3.2km/h 79% 0.00in /  0mm 0 W/m2
21:34 75 °F /  23.9 °C 68.1 °F /  20.1 °C 29.96in /  1014.4hPa Calm   2mph /  3.2km/h 79% 0.00in /  0mm 0 W/m2
21:39 75 °F /  23.9 °C 68 °F /  20 °C 29.96in /  1014.4hPa WSW 0.2mph /  0.3km/h 2mph /  3.2km/h 79% 0.00in /  0mm 0 W/m2
21:44 74.9 °F /  23.8 °C 68 °F /  20 °C 29.96in /  1014.4hPa WSW 0.4mph /  0.6km/h 3mph /  4.8km/h 79% 0.00in /  0mm 0 W/m2
21:49 74.9 °F /  23.8 °C 68.3 °F /  20.2 °C 29.96in /  1014.4hPa WSW 0.5mph /  0.8km/h 3mph /  4.8km/h 80% 0.00in /  0mm 0 W/m2
21:54 74.8 °F /  23.8 °C 68.2 °F /  20.1 °C 29.96in /  1014.4hPa WSW 0.1mph /  0.2km/h 3mph /  4.8km/h 80% 0.00in /  0mm 0 W/m2
21:59 74.7 °F /  23.7 °C 68.2 °F /  20.1 °C 29.96in /  1014.4hPa WSW 0.5mph /  0.8km/h 5mph /  8km/h 80% 0.00in /  0mm 0 W/m2
22:04 74.6 °F /  23.7 °C 68 °F /  20 °C 29.96in /  1014.4hPa Calm   5mph /  8km/h 80% 0.00in /  0mm 0 W/m2
22:09 74.5 °F /  23.6 °C 67.9 °F /  19.9 °C 29.96in /  1014.4hPa WSW 0.2mph /  0.3km/h 4mph /  6.4km/h 80% 0.00in /  0mm 0 W/m2
22:14 74.3 °F /  23.5 °C 68 °F /  20 °C 29.96in /  1014.4hPa Calm   4mph /  6.4km/h 80.6% 0.00in /  0mm 0 W/m2
22:19 74.2 °F /  23.4 °C 68 °F /  20 °C 29.95in /  1014.1hPa WSW 0.2mph /  0.3km/h 4mph /  6.4km/h 81% 0.00in /  0mm 0 W/m2
22:24 74.1 °F /  23.4 °C 67.9 °F /  19.9 °C 29.95in /  1014.1hPa Calm   4mph /  6.4km/h 81% 0.00in /  0mm 0 W/m2
22:29 74.1 °F /  23.4 °C 67.9 °F /  19.9 °C 29.95in /  1014.1hPa WSW 0.5mph /  0.8km/h 6mph /  9.7km/h 81% 0.00in /  0mm 0 W/m2
22:34 74 °F /  23.3 °C 67.8 °F /  19.9 °C 29.95in /  1014.1hPa Calm   6mph /  9.7km/h 81% 0.00in /  0mm 0 W/m2
22:39 74 °F /  23.3 °C 67.8 °F /  19.9 °C 29.95in /  1014.1hPa WSW 0.2mph /  0.3km/h 5mph /  8km/h 81% 0.00in /  0mm 0 W/m2
22:44 74 °F /  23.3 °C 67.9 °F /  19.9 °C 29.95in /  1014.1hPa WSW 0.1mph /  0.2km/h 5mph /  8km/h 81% 0.00in /  0mm 0 W/m2
22:49 74.1 °F /  23.4 °C 67.9 °F /  19.9 °C 29.95in /  1014.1hPa Calm   5mph /  8km/h 81% 0.00in /  0mm 0 W/m2
22:54 74.1 °F /  23.4 °C 67.9 °F /  19.9 °C 29.95in /  1014.1hPa SW 0.3mph /  0.5km/h 7mph /  11.3km/h 81% 0.00in /  0mm 0 W/m2
22:59 74.1 °F /  23.4 °C 67.9 °F /  19.9 °C 29.95in /  1014.1hPa WSW 0.1mph /  0.2km/h 7mph /  11.3km/h 81% 0.00in /  0mm 0 W/m2
23:04 74.1 °F /  23.4 °C 67.9 °F /  19.9 °C 29.95in /  1014.1hPa Calm   7mph /  11.3km/h 81% 0.00in /  0mm 0 W/m2
23:09 74.1 °F /  23.4 °C 67.9 °F /  19.9 °C 29.95in /  1014.1hPa WSW 0.1mph /  0.2km/h 3mph /  4.8km/h 81% 0.00in /  0mm 0 W/m2
23:14 74.1 °F /  23.4 °C 67.9 °F /  19.9 °C 29.95in /  1014.1hPa Calm   3mph /  4.8km/h 81% 0.00in /  0mm 0 W/m2
23:19 74.1 °F /  23.4 °C 67.8 °F /  19.9 °C 29.95in /  1014.1hPa Calm   3mph /  4.8km/h 80.8% 0.00in /  0mm 0 W/m2
23:24 74.1 °F /  23.4 °C 67.9 °F /  19.9 °C 29.95in /  1014.1hPa Calm   3mph /  4.8km/h 81% 0.00in /  0mm 0 W/m2
23:29 74 °F /  23.3 °C 67.8 °F /  19.9 °C 29.95in /  1014.1hPa Calm   3mph /  4.8km/h 80.8% 0.00in /  0mm 0 W/m2
23:34 74 °F /  23.3 °C 67.8 °F /  19.9 °C 29.95in /  1014.1hPa Calm   3mph /  4.8km/h 81% 0.00in /  0mm 0 W/m2
Hartford County Weather
Compliments of Weather Underground - 2 mb